sensor_id;sensor_type;location;lat;lon;timestamp;P1;durP1;ratioP1;P2;durP2;ratioP2
20954;SDS011;10636;19.390;-99.256;2023-01-31T00:01:49;11.43;;;10.30;;
20954;SDS011;10636;19.390;-99.256;2023-01-31T00:04:18;13.13;;;10.18;;
20954;SDS011;10636;19.390;-99.256;2023-01-31T00:06:46;12.88;;;10.80;;
20954;SDS011;10636;19.390;-99.256;2023-01-31T00:09:16;11.95;;;10.77;;
20954;SDS011;10636;19.390;-99.256;2023-01-31T00:11:47;11.35;;;10.27;;
20954;SDS011;10636;19.390;-99.256;2023-01-31T00:14:16;11.57;;;10.07;;
20954;SDS011;10636;19.390;-99.256;2023-01-31T00:16:46;11.70;;;10.35;;
20954;SDS011;10636;19.390;-99.256;2023-01-31T00:19:15;12.45;;;11.25;;
20954;SDS011;10636;19.390;-99.256;2023-01-31T00:21:44;12.75;;;10.10;;
20954;SDS011;10636;19.390;-99.256;2023-01-31T00:24:12;11.70;;;10.45;;
20954;SDS011;10636;19.390;-99.256;2023-01-31T00:26:41;11.48;;;10.30;;
20954;SDS011;10636;19.390;-99.256;2023-01-31T00:29:12;11.55;;;10.35;;
20954;SDS011;10636;19.390;-99.256;2023-01-31T00:31:40;12.02;;;10.82;;
20954;SDS011;10636;19.390;-99.256;2023-01-31T00:34:09;11.75;;;10.65;;
20954;SDS011;10636;19.390;-99.256;2023-01-31T00:36:38;11.70;;;10.50;;
20954;SDS011;10636;19.390;-99.256;2023-01-31T00:39:07;11.95;;;10.68;;
20954;SDS011;10636;19.390;-99.256;2023-01-31T00:41:41;12.00;;;10.80;;
20954;SDS011;10636;19.390;-99.256;2023-01-31T00:44:14;11.57;;;10.10;;
20954;SDS011;10636;19.390;-99.256;2023-01-31T00:46:43;15.70;;;9.90;;
20954;SDS011;10636;19.390;-99.256;2023-01-31T00:49:11;11.63;;;9.10;;
20954;SDS011;10636;19.390;-99.256;2023-01-31T00:51:42;12.52;;;8.88;;
20954;SDS011;10636;19.390;-99.256;2023-01-31T00:54:11;9.32;;;8.35;;
20954;SDS011;10636;19.390;-99.256;2023-01-31T00:56:40;11.35;;;8.18;;
20954;SDS011;10636;19.390;-99.256;2023-01-31T00:59:09;11.50;;;9.07;;
20954;SDS011;10636;19.390;-99.256;2023-01-31T01:01:40;10.38;;;8.43;;
20954;SDS011;10636;19.390;-99.256;2023-01-31T01:04:08;12.07;;;8.65;;
20954;SDS011;10636;19.390;-99.256;2023-01-31T01:06:45;15.95;;;10.05;;
20954;SDS011;10636;19.390;-99.256;2023-01-31T01:09:28;14.15;;;9.27;;
20954;SDS011;10636;19.390;-99.256;2023-01-31T01:11:58;13.20;;;9.23;;
20954;SDS011;10636;19.390;-99.256;2023-01-31T01:14:29;10.23;;;8.23;;
20954;SDS011;10636;19.390;-99.256;2023-01-31T01:17:03;11.07;;;8.60;;
20954;SDS011;10636;19.390;-99.256;2023-01-31T01:19:34;11.30;;;7.28;;
20954;SDS011;10636;19.390;-99.256;2023-01-31T01:22:02;13.52;;;7.65;;
20954;SDS011;10636;19.390;-99.256;2023-01-31T01:24:40;13.80;;;5.82;;
20954;SDS011;10636;19.390;-99.256;2023-01-31T01:27:12;12.77;;;6.15;;
20954;SDS011;10636;19.390;-99.256;2023-01-31T01:29:41;11.02;;;5.15;;
20954;SDS011;10636;19.390;-99.256;2023-01-31T01:32:30;9.15;;;5.60;;
20954;SDS011;10636;19.390;-99.256;2023-01-31T01:35:14;12.80;;;5.60;;
20954;SDS011;10636;19.390;-99.256;2023-01-31T01:37:43;8.10;;;5.22;;
20954;SDS011;10636;19.390;-99.256;2023-01-31T01:40:13;14.55;;;6.07;;
20954;SDS011;10636;19.390;-99.256;2023-01-31T01:42:42;7.78;;;5.40;;
20954;SDS011;10636;19.390;-99.256;2023-01-31T01:45:12;11.63;;;5.95;;
20954;SDS011;10636;19.390;-99.256;2023-01-31T01:47:44;11.02;;;5.97;;
20954;SDS011;10636;19.390;-99.256;2023-01-31T01:50:21;11.40;;;6.03;;
20954;SDS011;10636;19.390;-99.256;2023-01-31T01:52:55;8.40;;;5.72;;
20954;SDS011;10636;19.390;-99.256;2023-01-31T01:55:37;13.13;;;5.93;;
20954;SDS011;10636;19.390;-99.256;2023-01-31T01:58:14;10.82;;;6.05;;
20954;SDS011;10636;19.390;-99.256;2023-01-31T02:00:50;8.65;;;5.53;;
20954;SDS011;10636;19.390;-99.256;2023-01-31T02:03:22;12.18;;;6.50;;
20954;SDS011;10636;19.390;-99.256;2023-01-31T02:05:51;9.32;;;6.10;;
20954;SDS011;10636;19.390;-99.256;2023-01-31T02:08:23;12.35;;;6.65;;
20954;SDS011;10636;19.390;-99.256;2023-01-31T02:10:56;6.95;;;5.90;;
20954;SDS011;10636;19.390;-99.256;2023-01-31T02:13:40;12.70;;;6.47;;
20954;SDS011;10636;19.390;-99.256;2023-01-31T02:16:13;9.75;;;6.40;;
20954;SDS011;10636;19.390;-99.256;2023-01-31T02:18:56;8.90;;;5.68;;
20954;SDS011;10636;19.390;-99.256;2023-01-31T02:34:08;12.07;;;5.38;;
20954;SDS011;10636;19.390;-99.256;2023-01-31T02:36:50;8.35;;;5.30;;
20954;SDS011;10636;19.390;-99.256;2023-01-31T02:39:44;8.25;;;4.88;;
20954;SDS011;10636;19.390;-99.256;2023-01-31T02:42:23;10.05;;;5.35;;
20954;SDS011;10636;19.390;-99.256;2023-01-31T02:45:02;8.27;;;5.03;;
20954;SDS011;10636;19.390;-99.256;2023-01-31T02:47:39;6.38;;;4.95;;
20954;SDS011;10636;19.390;-99.256;2023-01-31T02:50:34;8.45;;;5.25;;
20954;SDS011;10636;19.390;-99.256;2023-01-31T02:53:09;9.68;;;4.95;;
20954;SDS011;10636;19.390;-99.256;2023-01-31T02:55:48;8.15;;;5.03;;
20954;SDS011;10636;19.390;-99.256;2023-01-31T02:58:39;7.30;;;5.65;;
20954;SDS011;10636;19.390;-99.256;2023-01-31T03:01:18;6.90;;;5.20;;
20954;SDS011;10636;19.390;-99.256;2023-01-31T03:03:56;8.77;;;5.53;;
20954;SDS011;10636;19.390;-99.256;2023-01-31T03:09:43;7.82;;;5.07;;
20954;SDS011;10636;19.390;-99.256;2023-01-31T03:15:23;7.18;;;4.85;;
20954;SDS011;10636;19.390;-99.256;2023-01-31T03:18:25;6.45;;;5.28;;
20954;SDS011;10636;19.390;-99.256;2023-01-31T03:21:01;7.28;;;5.72;;
20954;SDS011;10636;19.390;-99.256;2023-01-31T03:23:34;7.95;;;5.30;;
20954;SDS011;10636;19.390;-99.256;2023-01-31T03:26:07;7.90;;;5.47;;
20954;SDS011;10636;19.390;-99.256;2023-01-31T03:28:37;6.10;;;5.30;;
20954;SDS011;10636;19.390;-99.256;2023-01-31T03:31:09;6.90;;;5.18;;
20954;SDS011;10636;19.390;-99.256;2023-01-31T03:33:44;8.18;;;5.07;;
20954;SDS011;10636;19.390;-99.256;2023-01-31T03:36:20;7.00;;;5.45;;
20954;SDS011;10636;19.390;-99.256;2023-01-31T03:38:56;9.38;;;5.45;;
20954;SDS011;10636;19.390;-99.256;2023-01-31T03:41:42;11.52;;;5.97;;
20954;SDS011;10636;19.390;-99.256;2023-01-31T03:44:20;12.27;;;6.13;;
20954;SDS011;10636;19.390;-99.256;2023-01-31T03:46:58;15.82;;;6.18;;
20954;SDS011;10636;19.390;-99.256;2023-01-31T03:49:32;10.48;;;6.40;;
20954;SDS011;10636;19.390;-99.256;2023-01-31T03:52:10;14.85;;;6.90;;
20954;SDS011;10636;19.390;-99.256;2023-01-31T03:54:45;10.60;;;6.80;;
20954;SDS011;10636;19.390;-99.256;2023-01-31T03:57:20;10.27;;;6.90;;
20954;SDS011;10636;19.390;-99.256;2023-01-31T03:59:53;9.65;;;6.55;;
20954;SDS011;10636;19.390;-99.256;2023-01-31T04:02:26;10.50;;;6.32;;
20954;SDS011;10636;19.390;-99.256;2023-01-31T04:05:01;6.90;;;5.55;;
20954;SDS011;10636;19.390;-99.256;2023-01-31T04:07:33;10.73;;;5.78;;
20954;SDS011;10636;19.390;-99.256;2023-01-31T04:10:03;12.00;;;6.35;;
20954;SDS011;10636;19.390;-99.256;2023-01-31T04:12:38;10.10;;;6.57;;
20954;SDS011;10636;19.390;-99.256;2023-01-31T04:15:07;7.72;;;6.00;;
20954;SDS011;10636;19.390;-99.256;2023-01-31T04:17:36;8.57;;;5.53;;
20954;SDS011;10636;19.390;-99.256;2023-01-31T04:20:05;9.10;;;5.60;;
20954;SDS011;10636;19.390;-99.256;2023-01-31T04:22:35;8.60;;;5.80;;
20954;SDS011;10636;19.390;-99.256;2023-01-31T04:25:04;9.32;;;5.78;;
20954;SDS011;10636;19.390;-99.256;2023-01-31T04:27:35;8.90;;;5.90;;
20954;SDS011;10636;19.390;-99.256;2023-01-31T04:30:10;7.60;;;5.40;;
20954;SDS011;10636;19.390;-99.256;2023-01-31T04:32:39;6.18;;;5.32;;
20954;SDS011;10636;19.390;-99.256;2023-01-31T04:35:08;6.22;;;5.30;;
20954;SDS011;10636;19.390;-99.256;2023-01-31T04:37:37;6.88;;;5.03;;
20954;SDS011;10636;19.390;-99.256;2023-01-31T04:40:06;8.48;;;5.70;;
20954;SDS011;10636;19.390;-99.256;2023-01-31T04:42:40;8.60;;;5.97;;
20954;SDS011;10636;19.390;-99.256;2023-01-31T04:45:09;7.43;;;5.28;;
20954;SDS011;10636;19.390;-99.256;2023-01-31T04:47:41;8.45;;;5.43;;
20954;SDS011;10636;19.390;-99.256;2023-01-31T04:50:09;9.25;;;5.40;;
20954;SDS011;10636;19.390;-99.256;2023-01-31T04:52:38;10.60;;;5.28;;
20954;SDS011;10636;19.390;-99.256;2023-01-31T04:55:07;7.82;;;5.60;;
20954;SDS011;10636;19.390;-99.256;2023-01-31T04:57:36;8.00;;;5.40;;
20954;SDS011;10636;19.390;-99.256;2023-01-31T05:00:10;8.85;;;5.60;;
20954;SDS011;10636;19.390;-99.256;2023-01-31T05:02:42;8.50;;;5.45;;
20954;SDS011;10636;19.390;-99.256;2023-01-31T05:05:10;7.68;;;5.38;;
20954;SDS011;10636;19.390;-99.256;2023-01-31T05:07:39;6.55;;;5.47;;
20954;SDS011;10636;19.390;-99.256;2023-01-31T05:10:10;6.88;;;5.15;;
20954;SDS011;10636;19.390;-99.256;2023-01-31T05:12:39;5.68;;;5.03;;
20954;SDS011;10636;19.390;-99.256;2023-01-31T05:15:10;6.85;;;5.28;;
20954;SDS011;10636;19.390;-99.256;2023-01-31T05:17:50;6.05;;;5.15;;
20954;SDS011;10636;19.390;-99.256;2023-01-31T05:20:27;7.00;;;5.20;;
20954;SDS011;10636;19.390;-99.256;2023-01-31T05:23:04;8.45;;;5.13;;
20954;SDS011;10636;19.390;-99.256;2023-01-31T05:25:38;7.68;;;5.40;;
20954;SDS011;10636;19.390;-99.256;2023-01-31T05:28:11;7.18;;;5.13;;
20954;SDS011;10636;19.390;-99.256;2023-01-31T05:30:41;8.07;;;5.55;;
20954;SDS011;10636;19.390;-99.256;2023-01-31T05:33:18;6.13;;;5.10;;
20954;SDS011;10636;19.390;-99.256;2023-01-31T05:35:54;8.45;;;5.32;;
20954;SDS011;10636;19.390;-99.256;2023-01-31T05:38:23;5.80;;;5.10;;
20954;SDS011;10636;19.390;-99.256;2023-01-31T05:40:53;5.40;;;4.72;;
20954;SDS011;10636;19.390;-99.256;2023-01-31T05:43:21;6.13;;;5.40;;
20954;SDS011;10636;19.390;-99.256;2023-01-31T05:45:51;5.70;;;5.20;;
20954;SDS011;10636;19.390;-99.256;2023-01-31T05:48:21;6.13;;;5.38;;
20954;SDS011;10636;19.390;-99.256;2023-01-31T05:50:59;6.97;;;5.38;;
20954;SDS011;10636;19.390;-99.256;2023-01-31T05:53:28;6.85;;;5.10;;
20954;SDS011;10636;19.390;-99.256;2023-01-31T05:55:57;7.30;;;4.90;;
20954;SDS011;10636;19.390;-99.256;2023-01-31T05:58:30;5.90;;;5.35;;
20954;SDS011;10636;19.390;-99.256;2023-01-31T06:01:04;6.97;;;6.10;;
20954;SDS011;10636;19.390;-99.256;2023-01-31T06:03:34;7.93;;;5.10;;
20954;SDS011;10636;19.390;-99.256;2023-01-31T06:06:10;6.70;;;5.90;;
20954;SDS011;10636;19.390;-99.256;2023-01-31T06:08:39;6.53;;;5.32;;
20954;SDS011;10636;19.390;-99.256;2023-01-31T06:11:12;7.25;;;5.47;;
20954;SDS011;10636;19.390;-99.256;2023-01-31T06:13:44;5.75;;;5.20;;
20954;SDS011;10636;19.390;-99.256;2023-01-31T06:16:15;7.20;;;5.53;;
20954;SDS011;10636;19.390;-99.256;2023-01-31T06:18:50;6.72;;;6.10;;
20954;SDS011;10636;19.390;-99.256;2023-01-31T06:21:24;7.03;;;5.60;;
20954;SDS011;10636;19.390;-99.256;2023-01-31T06:23:53;5.28;;;4.78;;
20954;SDS011;10636;19.390;-99.256;2023-01-31T06:26:23;5.72;;;5.15;;
20954;SDS011;10636;19.390;-99.256;2023-01-31T06:28:55;6.30;;;5.18;;
20954;SDS011;10636;19.390;-99.256;2023-01-31T06:31:25;7.32;;;5.25;;
20954;SDS011;10636;19.390;-99.256;2023-01-31T06:33:54;7.30;;;5.82;;
20954;SDS011;10636;19.390;-99.256;2023-01-31T06:36:23;6.95;;;5.63;;
20954;SDS011;10636;19.390;-99.256;2023-01-31T06:38:52;6.72;;;5.78;;
20954;SDS011;10636;19.390;-99.256;2023-01-31T06:41:20;7.60;;;5.55;;
20954;SDS011;10636;19.390;-99.256;2023-01-31T06:43:51;6.35;;;5.55;;
20954;SDS011;10636;19.390;-99.256;2023-01-31T06:46:19;6.28;;;5.50;;
20954;SDS011;10636;19.390;-99.256;2023-01-31T06:48:51;6.22;;;5.63;;
20954;SDS011;10636;19.390;-99.256;2023-01-31T06:51:25;6.25;;;5.65;;
20954;SDS011;10636;19.390;-99.256;2023-01-31T06:53:57;6.72;;;5.15;;
20954;SDS011;10636;19.390;-99.256;2023-01-31T06:56:29;7.57;;;5.63;;
20954;SDS011;10636;19.390;-99.256;2023-01-31T06:58:58;6.20;;;5.50;;
20954;SDS011;10636;19.390;-99.256;2023-01-31T07:01:40;6.75;;;6.05;;
20954;SDS011;10636;19.390;-99.256;2023-01-31T07:04:10;6.75;;;5.63;;
20954;SDS011;10636;19.390;-99.256;2023-01-31T07:06:52;6.85;;;5.35;;
20954;SDS011;10636;19.390;-99.256;2023-01-31T07:09:23;5.97;;;5.35;;
20954;SDS011;10636;19.390;-99.256;2023-01-31T07:11:53;6.68;;;5.47;;
20954;SDS011;10636;19.390;-99.256;2023-01-31T07:14:22;6.13;;;5.40;;
20954;SDS011;10636;19.390;-99.256;2023-01-31T07:16:50;6.40;;;5.80;;
20954;SDS011;10636;19.390;-99.256;2023-01-31T07:19:22;6.40;;;5.75;;
20954;SDS011;10636;19.390;-99.256;2023-01-31T07:21:59;5.97;;;5.38;;
20954;SDS011;10636;19.390;-99.256;2023-01-31T07:24:30;5.85;;;5.20;;
20954;SDS011;10636;19.390;-99.256;2023-01-31T07:27:06;6.43;;;5.55;;
20954;SDS011;10636;19.390;-99.256;2023-01-31T07:29:42;8.43;;;5.25;;
20954;SDS011;10636;19.390;-99.256;2023-01-31T07:32:13;7.85;;;5.40;;
20954;SDS011;10636;19.390;-99.256;2023-01-31T07:37:27;9.32;;;5.72;;
20954;SDS011;10636;19.390;-99.256;2023-01-31T07:39:58;6.18;;;5.57;;
20954;SDS011;10636;19.390;-99.256;2023-01-31T07:42:31;6.93;;;5.70;;
20954;SDS011;10636;19.390;-99.256;2023-01-31T07:45:04;6.72;;;6.03;;
20954;SDS011;10636;19.390;-99.256;2023-01-31T07:47:39;7.13;;;5.43;;
20954;SDS011;10636;19.390;-99.256;2023-01-31T07:50:19;6.68;;;6.07;;
20954;SDS011;10636;19.390;-99.256;2023-01-31T07:52:48;7.35;;;5.40;;
20954;SDS011;10636;19.390;-99.256;2023-01-31T07:55:25;6.43;;;5.70;;
20954;SDS011;10636;19.390;-99.256;2023-01-31T07:58:08;8.13;;;5.65;;
20954;SDS011;10636;19.390;-99.256;2023-01-31T08:00:37;6.80;;;5.60;;
20954;SDS011;10636;19.390;-99.256;2023-01-31T08:03:25;6.47;;;5.20;;
20954;SDS011;10636;19.390;-99.256;2023-01-31T08:06:11;7.93;;;5.30;;
20954;SDS011;10636;19.390;-99.256;2023-01-31T08:08:41;9.45;;;5.68;;
20954;SDS011;10636;19.390;-99.256;2023-01-31T08:11:11;6.82;;;5.40;;
20954;SDS011;10636;19.390;-99.256;2023-01-31T08:13:39;5.45;;;4.95;;
20954;SDS011;10636;19.390;-99.256;2023-01-31T08:16:10;5.35;;;4.85;;
20954;SDS011;10636;19.390;-99.256;2023-01-31T08:18:38;8.90;;;5.40;;
20954;SDS011;10636;19.390;-99.256;2023-01-31T08:21:07;6.90;;;5.45;;
20954;SDS011;10636;19.390;-99.256;2023-01-31T08:23:41;7.00;;;5.05;;
20954;SDS011;10636;19.390;-99.256;2023-01-31T08:26:11;6.63;;;5.40;;
20954;SDS011;10636;19.390;-99.256;2023-01-31T08:28:41;5.53;;;4.93;;
20954;SDS011;10636;19.390;-99.256;2023-01-31T08:31:13;6.65;;;5.13;;
20954;SDS011;10636;19.390;-99.256;2023-01-31T08:33:42;5.45;;;4.95;;
20954;SDS011;10636;19.390;-99.256;2023-01-31T08:36:13;5.47;;;4.97;;
20954;SDS011;10636;19.390;-99.256;2023-01-31T08:38:44;5.32;;;4.82;;
20954;SDS011;10636;19.390;-99.256;2023-01-31T08:41:13;5.28;;;4.78;;
20954;SDS011;10636;19.390;-99.256;2023-01-31T08:43:43;5.18;;;4.72;;
20954;SDS011;10636;19.390;-99.256;2023-01-31T08:46:13;6.90;;;4.63;;
20954;SDS011;10636;19.390;-99.256;2023-01-31T08:48:42;6.32;;;4.93;;
20954;SDS011;10636;19.390;-99.256;2023-01-31T08:51:13;8.07;;;4.97;;
20954;SDS011;10636;19.390;-99.256;2023-01-31T08:53:42;5.60;;;4.78;;
20954;SDS011;10636;19.390;-99.256;2023-01-31T08:56:11;6.43;;;4.45;;
20954;SDS011;10636;19.390;-99.256;2023-01-31T08:58:41;7.28;;;4.50;;
20954;SDS011;10636;19.390;-99.256;2023-01-31T09:01:11;6.68;;;4.25;;
20954;SDS011;10636;19.390;-99.256;2023-01-31T09:03:41;5.95;;;4.57;;
20954;SDS011;10636;19.390;-99.256;2023-01-31T09:06:10;6.85;;;4.57;;
20954;SDS011;10636;19.390;-99.256;2023-01-31T09:08:43;5.35;;;4.38;;
20954;SDS011;10636;19.390;-99.256;2023-01-31T09:11:12;6.18;;;4.38;;
20954;SDS011;10636;19.390;-99.256;2023-01-31T09:13:43;5.25;;;4.68;;
20954;SDS011;10636;19.390;-99.256;2023-01-31T09:16:14;5.38;;;4.57;;
20954;SDS011;10636;19.390;-99.256;2023-01-31T09:18:42;4.93;;;4.20;;
20954;SDS011;10636;19.390;-99.256;2023-01-31T09:21:13;5.22;;;4.60;;
20954;SDS011;10636;19.390;-99.256;2023-01-31T09:23:43;5.80;;;4.40;;
20954;SDS011;10636;19.390;-99.256;2023-01-31T09:26:13;6.32;;;4.40;;
20954;SDS011;10636;19.390;-99.256;2023-01-31T09:28:42;6.25;;;4.30;;
20954;SDS011;10636;19.390;-99.256;2023-01-31T09:31:11;5.22;;;4.15;;
20954;SDS011;10636;19.390;-99.256;2023-01-31T09:33:41;5.78;;;4.15;;
20954;SDS011;10636;19.390;-99.256;2023-01-31T09:36:15;5.28;;;4.47;;
20954;SDS011;10636;19.390;-99.256;2023-01-31T09:38:59;5.75;;;4.40;;
20954;SDS011;10636;19.390;-99.256;2023-01-31T09:41:30;6.00;;;4.40;;
20954;SDS011;10636;19.390;-99.256;2023-01-31T09:44:04;5.00;;;4.50;;
20954;SDS011;10636;19.390;-99.256;2023-01-31T09:46:39;4.88;;;4.20;;
20954;SDS011;10636;19.390;-99.256;2023-01-31T09:49:18;4.88;;;4.38;;
20954;SDS011;10636;19.390;-99.256;2023-01-31T09:51:59;4.65;;;4.15;;
20954;SDS011;10636;19.390;-99.256;2023-01-31T09:54:34;6.45;;;4.65;;
20954;SDS011;10636;19.390;-99.256;2023-01-31T09:57:15;4.70;;;4.30;;
20954;SDS011;10636;19.390;-99.256;2023-01-31T09:59:58;4.78;;;4.05;;
20954;SDS011;10636;19.390;-99.256;2023-01-31T10:02:42;5.60;;;4.40;;
20954;SDS011;10636;19.390;-99.256;2023-01-31T10:05:36;4.75;;;4.25;;
20954;SDS011;10636;19.390;-99.256;2023-01-31T10:08:16;5.00;;;4.50;;
20954;SDS011;10636;19.390;-99.256;2023-01-31T10:10:51;4.57;;;4.18;;
20954;SDS011;10636;19.390;-99.256;2023-01-31T10:13:25;4.78;;;4.28;;
20954;SDS011;10636;19.390;-99.256;2023-01-31T10:16:11;5.32;;;4.35;;
20954;SDS011;10636;19.390;-99.256;2023-01-31T10:18:58;5.13;;;4.50;;
20954;SDS011;10636;19.390;-99.256;2023-01-31T10:21:41;4.78;;;4.30;;
20954;SDS011;10636;19.390;-99.256;2023-01-31T10:24:16;5.20;;;4.57;;
20954;SDS011;10636;19.390;-99.256;2023-01-31T10:26:54;4.80;;;4.35;;
20954;SDS011;10636;19.390;-99.256;2023-01-31T10:29:39;6.20;;;4.32;;
20954;SDS011;10636;19.390;-99.256;2023-01-31T10:32:14;5.30;;;4.28;;
20954;SDS011;10636;19.390;-99.256;2023-01-31T10:34:52;4.75;;;4.30;;
20954;SDS011;10636;19.390;-99.256;2023-01-31T10:37:29;4.90;;;4.50;;
20954;SDS011;10636;19.390;-99.256;2023-01-31T10:40:15;4.82;;;4.32;;
20954;SDS011;10636;19.390;-99.256;2023-01-31T10:43:08;5.05;;;4.55;;
20954;SDS011;10636;19.390;-99.256;2023-01-31T10:45:47;5.00;;;4.47;;
20954;SDS011;10636;19.390;-99.256;2023-01-31T10:48:16;4.93;;;4.30;;
20954;SDS011;10636;19.390;-99.256;2023-01-31T10:50:54;5.20;;;4.65;;
20954;SDS011;10636;19.390;-99.256;2023-01-31T10:53:38;4.90;;;4.50;;
20954;SDS011;10636;19.390;-99.256;2023-01-31T10:56:22;5.50;;;4.22;;
20954;SDS011;10636;19.390;-99.256;2023-01-31T10:59:00;4.68;;;4.25;;
20954;SDS011;10636;19.390;-99.256;2023-01-31T11:01:33;4.82;;;4.30;;
20954;SDS011;10636;19.390;-99.256;2023-01-31T11:04:02;7.10;;;4.60;;
20954;SDS011;10636;19.390;-99.256;2023-01-31T11:06:48;4.80;;;4.40;;
20954;SDS011;10636;19.390;-99.256;2023-01-31T11:09:17;6.57;;;4.80;;
20954;SDS011;10636;19.390;-99.256;2023-01-31T11:12:01;6.22;;;4.45;;
20954;SDS011;10636;19.390;-99.256;2023-01-31T11:14:35;5.35;;;4.70;;
20954;SDS011;10636;19.390;-99.256;2023-01-31T11:17:06;5.20;;;4.75;;
20954;SDS011;10636;19.390;-99.256;2023-01-31T11:19:43;5.32;;;4.53;;
20954;SDS011;10636;19.390;-99.256;2023-01-31T11:22:17;6.35;;;4.40;;
20954;SDS011;10636;19.390;-99.256;2023-01-31T11:24:55;4.70;;;4.30;;
20954;SDS011;10636;19.390;-99.256;2023-01-31T11:27:35;5.85;;;4.78;;
20954;SDS011;10636;19.390;-99.256;2023-01-31T11:30:18;4.57;;;4.18;;
20954;SDS011;10636;19.390;-99.256;2023-01-31T11:32:54;5.85;;;4.28;;
20954;SDS011;10636;19.390;-99.256;2023-01-31T11:35:26;6.38;;;4.20;;
20954;SDS011;10636;19.390;-99.256;2023-01-31T11:38:18;6.00;;;4.38;;
20954;SDS011;10636;19.390;-99.256;2023-01-31T11:41:01;5.00;;;4.35;;
20954;SDS011;10636;19.390;-99.256;2023-01-31T11:44:10;5.22;;;4.32;;
20954;SDS011;10636;19.390;-99.256;2023-01-31T11:46:53;5.72;;;4.10;;
20954;SDS011;10636;19.390;-99.256;2023-01-31T11:49:29;5.55;;;4.47;;
20954;SDS011;10636;19.390;-99.256;2023-01-31T11:52:13;6.10;;;4.65;;
20954;SDS011;10636;19.390;-99.256;2023-01-31T11:54:45;6.05;;;4.75;;
20954;SDS011;10636;19.390;-99.256;2023-01-31T11:57:21;6.38;;;4.63;;
20954;SDS011;10636;19.390;-99.256;2023-01-31T11:59:59;7.20;;;5.45;;
20954;SDS011;10636;19.390;-99.256;2023-01-31T12:02:34;8.15;;;5.88;;
20954;SDS011;10636;19.390;-99.256;2023-01-31T12:05:08;7.22;;;5.75;;
20954;SDS011;10636;19.390;-99.256;2023-01-31T12:07:42;6.38;;;5.53;;
20954;SDS011;10636;19.390;-99.256;2023-01-31T12:10:27;6.97;;;5.75;;
20954;SDS011;10636;19.390;-99.256;2023-01-31T12:13:16;6.38;;;5.20;;
20954;SDS011;10636;19.390;-99.256;2023-01-31T12:15:54;6.30;;;5.70;;
20954;SDS011;10636;19.390;-99.256;2023-01-31T12:18:35;6.28;;;5.60;;
20954;SDS011;10636;19.390;-99.256;2023-01-31T12:21:23;7.60;;;5.22;;
20954;SDS011;10636;19.390;-99.256;2023-01-31T12:24:03;7.18;;;5.18;;
20954;SDS011;10636;19.390;-99.256;2023-01-31T12:26:44;7.07;;;5.00;;
20954;SDS011;10636;19.390;-99.256;2023-01-31T12:29:18;8.65;;;5.32;;
20954;SDS011;10636;19.390;-99.256;2023-01-31T12:32:15;6.43;;;5.20;;
20954;SDS011;10636;19.390;-99.256;2023-01-31T12:35:03;6.80;;;5.10;;
20954;SDS011;10636;19.390;-99.256;2023-01-31T12:38:13;6.18;;;5.00;;
20954;SDS011;10636;19.390;-99.256;2023-01-31T12:41:03;5.40;;;4.90;;
20954;SDS011;10636;19.390;-99.256;2023-01-31T12:43:58;6.82;;;5.13;;
20954;SDS011;10636;19.390;-99.256;2023-01-31T12:46:52;7.30;;;4.90;;
20954;SDS011;10636;19.390;-99.256;2023-01-31T12:52:47;7.30;;;5.20;;
20954;SDS011;10636;19.390;-99.256;2023-01-31T12:55:30;8.00;;;5.28;;
20954;SDS011;10636;19.390;-99.256;2023-01-31T12:58:17;6.97;;;5.28;;
20954;SDS011;10636;19.390;-99.256;2023-01-31T13:01:04;8.27;;;4.75;;
20954;SDS011;10636;19.390;-99.256;2023-01-31T13:03:45;7.30;;;5.30;;
20954;SDS011;10636;19.390;-99.256;2023-01-31T13:06:40;5.93;;;5.05;;
20954;SDS011;10636;19.390;-99.256;2023-01-31T13:09:24;5.88;;;5.20;;
20954;SDS011;10636;19.390;-99.256;2023-01-31T13:12:04;5.88;;;4.97;;
20954;SDS011;10636;19.390;-99.256;2023-01-31T13:14:39;7.53;;;5.20;;
20954;SDS011;10636;19.390;-99.256;2023-01-31T13:17:21;7.45;;;5.50;;
20954;SDS011;10636;19.390;-99.256;2023-01-31T13:19:56;7.22;;;5.35;;
20954;SDS011;10636;19.390;-99.256;2023-01-31T13:22:38;7.00;;;4.95;;
20954;SDS011;10636;19.390;-99.256;2023-01-31T13:25:17;6.07;;;5.10;;
20954;SDS011;10636;19.390;-99.256;2023-01-31T13:28:10;9.10;;;5.57;;
20954;SDS011;10636;19.390;-99.256;2023-01-31T13:30:51;7.70;;;5.60;;
20954;SDS011;10636;19.390;-99.256;2023-01-31T13:33:33;6.80;;;5.35;;
20954;SDS011;10636;19.390;-99.256;2023-01-31T13:36:14;9.27;;;5.82;;
20954;SDS011;10636;19.390;-99.256;2023-01-31T13:39:05;8.52;;;5.88;;
20954;SDS011;10636;19.390;-99.256;2023-01-31T13:41:39;9.05;;;6.00;;
20954;SDS011;10636;19.390;-99.256;2023-01-31T13:44:10;13.38;;;6.53;;
20954;SDS011;10636;19.390;-99.256;2023-01-31T13:46:47;11.10;;;6.60;;
20954;SDS011;10636;19.390;-99.256;2023-01-31T13:49:26;8.82;;;5.97;;
20954;SDS011;10636;19.390;-99.256;2023-01-31T13:52:11;9.13;;;5.93;;
20954;SDS011;10636;19.390;-99.256;2023-01-31T13:54:58;10.60;;;6.65;;
20954;SDS011;10636;19.390;-99.256;2023-01-31T13:57:50;9.82;;;6.78;;
20954;SDS011;10636;19.390;-99.256;2023-01-31T14:03:18;10.93;;;6.10;;
20954;SDS011;10636;19.390;-99.256;2023-01-31T14:05:53;8.68;;;6.72;;
20954;SDS011;10636;19.390;-99.256;2023-01-31T14:08:33;9.93;;;6.90;;
20954;SDS011;10636;19.390;-99.256;2023-01-31T14:11:35;12.35;;;7.45;;
20954;SDS011;10636;19.390;-99.256;2023-01-31T14:14:22;10.85;;;7.22;;
20954;SDS011;10636;19.390;-99.256;2023-01-31T14:17:08;10.90;;;7.50;;
20954;SDS011;10636;19.390;-99.256;2023-01-31T14:22:38;10.98;;;7.68;;
20954;SDS011;10636;19.390;-99.256;2023-01-31T14:25:18;11.45;;;7.40;;
20954;SDS011;10636;19.390;-99.256;2023-01-31T14:28:19;12.52;;;7.65;;
20954;SDS011;10636;19.390;-99.256;2023-01-31T14:30:51;12.20;;;7.38;;
20954;SDS011;10636;19.390;-99.256;2023-01-31T14:33:30;10.02;;;7.78;;
20954;SDS011;10636;19.390;-99.256;2023-01-31T14:36:14;12.73;;;8.02;;
20954;SDS011;10636;19.390;-99.256;2023-01-31T14:39:09;12.40;;;8.65;;
20954;SDS011;10636;19.390;-99.256;2023-01-31T14:42:07;15.43;;;8.35;;
20954;SDS011;10636;19.390;-99.256;2023-01-31T14:45:13;12.93;;;8.55;;
20954;SDS011;10636;19.390;-99.256;2023-01-31T14:48:08;13.90;;;10.18;;
20954;SDS011;10636;19.390;-99.256;2023-01-31T14:51:00;15.00;;;10.25;;
20954;SDS011;10636;19.390;-99.256;2023-01-31T14:53:53;13.23;;;10.40;;
20954;SDS011;10636;19.390;-99.256;2023-01-31T14:56:40;14.90;;;10.20;;
20954;SDS011;10636;19.390;-99.256;2023-01-31T14:59:32;13.73;;;10.55;;
20954;SDS011;10636;19.390;-99.256;2023-01-31T15:05:36;14.43;;;11.73;;
20954;SDS011;10636;19.390;-99.256;2023-01-31T15:14:23;17.73;;;11.05;;
20954;SDS011;10636;19.390;-99.256;2023-01-31T15:17:22;17.77;;;11.93;;
20954;SDS011;10636;19.390;-99.256;2023-01-31T15:20:12;18.45;;;12.05;;
20954;SDS011;10636;19.390;-99.256;2023-01-31T15:22:52;18.88;;;12.70;;
20954;SDS011;10636;19.390;-99.256;2023-01-31T15:25:27;20.35;;;13.43;;
20954;SDS011;10636;19.390;-99.256;2023-01-31T15:28:00;16.77;;;13.25;;
20954;SDS011;10636;19.390;-99.256;2023-01-31T15:30:34;18.90;;;13.80;;
20954;SDS011;10636;19.390;-99.256;2023-01-31T15:33:05;22.65;;;13.55;;
20954;SDS011;10636;19.390;-99.256;2023-01-31T15:35:43;21.15;;;13.55;;
20954;SDS011;10636;19.390;-99.256;2023-01-31T15:38:21;18.40;;;14.23;;
20954;SDS011;10636;19.390;-99.256;2023-01-31T15:41:14;15.68;;;13.45;;
20954;SDS011;10636;19.390;-99.256;2023-01-31T15:46:38;16.50;;;14.70;;
20954;SDS011;10636;19.390;-99.256;2023-01-31T15:49:29;18.63;;;14.90;;
20954;SDS011;10636;19.390;-99.256;2023-01-31T15:52:05;20.17;;;15.50;;